ANACAPA ISLAND CA US current weather conditions

sailwx.info

Wind from 317 at 10 knots gusting 16

Air temperature 16.7° C
Dewpoint 13.6° C

Last reported at 2015-Mar-28 00:23 UTC.
Time now 2015-Mar-28 01:49 UTC

Location: N 34°01' W 119°22'.
View on Google Maps.

See reports from other nearby stations

  
Tides and Currents Weather Stations Pressure Air Temp Water Temp Dewpoint Dewpoint Depression Visibility Wind Speed Wind Dir Waves Ship Positions
date/time (UTC)wind fromknots sea level pressurealtimeterstation pressurevisibilityair tempwater tempwave heightnotes
2015-Mar-28 00:23 317 10 gusting 16 16.7
2015-Mar-27 23:23 307 12 gusting 16 17.2
2015-Mar-27 22:23 306 8 gusting 13 18.3
2015-Mar-27 21:23 306 8 gusting 12 18.3
2015-Mar-27 20:23 304 8 gusting 12 18.3
2015-Mar-27 19:23 305 7 gusting 10 18.9
2015-Mar-27 18:23 205 2 gusting 5 21.7
2015-Mar-27 17:23 230 3 gusting 8 19.4
2015-Mar-27 16:23 330 1 gusting 5 20.0
2015-Mar-27 15:23 315 4 gusting 8 16.1
2015-Mar-27 14:23 313 6 gusting 8 15.0
2015-Mar-27 13:23 308 7 gusting 10 14.4
2015-Mar-27 12:23 321 6 gusting 12 14.4
2015-Mar-27 11:23 327 9 gusting 13 15.0
2015-Mar-27 10:23 320 6 gusting 13 16.1
2015-Mar-27 09:23 323 7 gusting 13 17.8
2015-Mar-27 08:23 325 7 gusting 12 17.2
2015-Mar-27 07:23 335 6 gusting 11 17.2
2015-Mar-27 06:23 353 6 gusting 9 17.2
2015-Mar-27 05:23 002 6 gusting 9 18.3
2015-Mar-27 04:23 310 5 gusting 13 20.0
2015-Mar-27 03:23 290 8 gusting 15 21.7
2015-Mar-27 02:23 282 7 gusting 14 20.6
2015-Mar-27 01:23 294 10 gusting 18 19.4
2015-Mar-27 00:23 301 8 gusting 13 20.0
2015-Mar-26 23:23 293 8 gusting 13 21.7
2015-Mar-26 22:23 238 8 gusting 12 25.6
2015-Mar-26 21:23 229 8 gusting 12 25.0
2015-Mar-26 20:23 215 7 gusting 11 24.4
2015-Mar-26 19:23 210 6 gusting 9 23.3
2015-Mar-26 18:23 152 4 gusting 7 22.2
2015-Mar-26 17:23 066 0 gusting 5 23.3
2015-Mar-26 16:23 051 2 gusting 4 21.7
2015-Mar-26 15:23 054 2 gusting 6 20.6
2015-Mar-26 14:23 044 2 gusting 4 18.3
2015-Mar-26 13:23 353 2 gusting 6 16.7
2015-Mar-26 12:23 322 5 gusting 8 15.0
2015-Mar-26 11:23 333 6 gusting 11 15.6
2015-Mar-26 10:23 320 7 gusting 11 16.1
2015-Mar-26 09:23 314 6 gusting 11 15.6
2015-Mar-26 08:23 321 7 gusting 12 15.6
2015-Mar-26 07:23 339 7 gusting 13 16.1
2015-Mar-26 06:23 352 6 gusting 14 17.2
2015-Mar-26 05:23 291 9 gusting 14 20.0
2015-Mar-26 04:23 298 7 gusting 13 17.8
2015-Mar-26 03:23 299 4 gusting 6 20.0
2015-Mar-26 02:23 286 3 gusting 7 20.6
2015-Mar-26 01:23 285 8 gusting 13 20.6